createdAt,value
2022-10-03T00:00:46.076Z,13.86
2022-10-03T00:01:46.447Z,13.93
2022-10-03T00:02:48.650Z,13.95
2022-10-03T00:03:46.970Z,13.93
2022-10-03T00:04:49.152Z,13.96
2022-10-03T00:05:47.541Z,13.99
2022-10-03T00:06:47.845Z,14.03
2022-10-03T00:07:50.013Z,13.99
2022-10-03T00:08:50.170Z,14.00
2022-10-03T00:09:48.683Z,13.89
2022-10-03T00:10:50.869Z,13.89
2022-10-03T00:11:49.242Z,13.87
2022-10-03T00:12:49.549Z,13.85
2022-10-03T00:13:49.862Z,13.89
2022-10-03T00:14:50.219Z,13.86
2022-10-03T00:15:52.370Z,13.85
2022-10-03T00:16:51.621Z,13.90
2022-10-03T00:17:50.977Z,13.90
2022-10-03T00:18:51.254Z,13.86
2022-10-03T00:19:51.564Z,13.86
2022-10-03T00:20:53.752Z,13.79
2022-10-03T00:21:53.624Z,13.79
2022-10-03T00:22:52.383Z,13.79
2022-10-03T00:23:52.660Z,13.83
2022-10-03T00:24:52.980Z,13.81
2022-10-03T00:25:53.293Z,13.70
2022-10-03T00:26:55.550Z,13.67
2022-10-03T00:27:55.778Z,13.67
2022-10-03T00:28:54.074Z,13.70
2022-10-03T00:29:54.390Z,13.68
2022-10-03T00:30:56.635Z,13.65
2022-10-03T00:31:55.904Z,13.68
2022-10-03T00:32:55.477Z,13.74
2022-10-03T00:33:58.837Z,13.71
2022-10-03T00:34:55.933Z,13.74
2022-10-03T00:35:58.895Z,13.74
2022-10-03T00:36:57.379Z,13.68
2022-10-03T00:37:56.660Z,13.71
2022-10-03T00:38:57.004Z,13.71
2022-10-03T00:39:59.188Z,13.67
2022-10-03T00:40:59.382Z,13.65
2022-10-03T00:41:58.886Z,13.56
2022-10-03T00:42:58.116Z,13.59
2022-10-03T00:43:58.395Z,13.56
2022-10-03T00:44:58.695Z,13.56
2022-10-03T00:45:59.002Z,13.50
2022-10-03T00:47:01.255Z,13.53
2022-10-03T00:47:59.546Z,13.50
2022-10-03T00:48:59.857Z,13.49
2022-10-03T00:50:00.172Z,13.50
2022-10-03T00:51:00.476Z,13.54
2022-10-03T00:52:04.118Z,13.52
2022-10-03T00:53:01.010Z,13.54
2022-10-03T00:54:01.315Z,13.56
2022-10-03T00:55:02.566Z,13.54
2022-10-03T00:56:02.728Z,13.56
2022-10-03T00:57:05.592Z,13.52
2022-10-03T00:58:02.496Z,13.50
2022-10-03T00:59:03.718Z,13.52
2022-10-03T01:00:03.882Z,13.53
2022-10-03T01:01:04.360Z,13.50
2022-10-03T01:02:06.616Z,13.50
2022-10-03T01:03:05.923Z,13.47
2022-10-03T01:04:04.313Z,13.49
2022-10-03T01:05:04.640Z,13.53
2022-10-03T01:06:04.942Z,13.56
2022-10-03T01:07:07.126Z,13.63
2022-10-03T01:08:06.587Z,13.60
2022-10-03T01:09:06.802Z,13.62
2022-10-03T01:10:07.017Z,13.59
2022-10-03T01:11:08.368Z,13.67
2022-10-03T01:12:07.648Z,13.68
2022-10-03T01:13:06.882Z,13.70
2022-10-03T01:14:09.228Z,13.71
2022-10-03T01:15:07.512Z,13.68
2022-10-03T01:16:07.863Z,13.62
2022-10-03T01:17:10.091Z,13.62
2022-10-03T01:18:10.231Z,13.60
2022-10-03T01:19:08.471Z,13.65
2022-10-03T01:20:08.779Z,13.59
2022-10-03T01:21:09.086Z,13.56
2022-10-03T01:22:10.374Z,13.60
2022-10-03T01:23:11.604Z,13.57
2022-10-03T01:24:09.979Z,13.52
2022-10-03T01:25:10.299Z,13.54
2022-10-03T01:26:10.591Z,13.54
2022-10-03T01:27:13.757Z,13.50
2022-10-03T01:28:12.997Z,13.57
2022-10-03T01:29:13.158Z,13.47
2022-10-03T01:30:13.342Z,13.50
2022-10-03T01:31:12.165Z,13.53
2022-10-03T01:32:14.345Z,13.47
2022-10-03T01:33:14.496Z,13.54
2022-10-03T01:34:14.661Z,13.59
2022-10-03T01:35:14.852Z,13.62
2022-10-03T01:36:15.042Z,13.63
2022-10-03T01:37:14.663Z,13.77
2022-10-03T01:38:16.033Z,13.72
2022-10-03T01:39:16.246Z,13.68
2022-10-03T01:40:16.403Z,13.59
2022-10-03T01:41:16.611Z,13.59
2022-10-03T01:42:16.329Z,13.60
2022-10-03T01:43:17.559Z,13.59
2022-10-03T01:44:15.943Z,13.59
2022-10-03T01:45:18.121Z,13.59
2022-10-03T01:46:16.555Z,13.59
2022-10-03T01:47:19.692Z,13.52
2022-10-03T01:48:18.915Z,13.52
2022-10-03T01:49:17.434Z,13.53
2022-10-03T01:50:19.617Z,13.54
2022-10-03T01:51:19.806Z,13.49
2022-10-03T01:52:19.287Z,13.49
2022-10-03T01:53:18.537Z,13.42
2022-10-03T01:54:20.725Z,13.41
2022-10-03T01:55:20.916Z,13.41
2022-10-03T01:56:19.426Z,13.37
2022-10-03T01:57:19.836Z,13.37
2022-10-03T01:58:20.008Z,13.28
2022-10-03T01:59:22.195Z,13.30
2022-10-03T02:00:22.359Z,13.27
2022-10-03T02:01:20.917Z,13.27
2022-10-03T02:02:24.532Z,13.27
2022-10-03T02:03:21.417Z,13.28
2022-10-03T02:04:21.723Z,13.30
2022-10-03T02:05:22.018Z,13.30
2022-10-03T02:06:24.178Z,13.37
2022-10-03T02:07:25.340Z,13.37
2022-10-03T02:08:22.987Z,13.28
2022-10-03T02:09:23.292Z,13.37
2022-10-03T02:10:25.480Z,13.42
2022-10-03T02:11:23.856Z,13.38
2022-10-03T02:12:25.125Z,13.37
2022-10-03T02:13:26.364Z,13.39
2022-10-03T02:14:24.744Z,13.33
2022-10-03T02:15:25.199Z,13.33
2022-10-03T02:16:25.345Z,13.33
2022-10-03T02:17:28.132Z,13.35
2022-10-03T02:18:27.728Z,13.35
2022-10-03T02:19:26.240Z,13.39
2022-10-03T02:21:42.380Z,13.38
2022-10-03T02:22:44.523Z,13.33
2022-10-03T02:23:44.700Z,13.25
2022-10-03T02:24:43.208Z,13.25
2022-10-03T02:25:43.499Z,13.25
2022-10-03T02:26:45.692Z,13.30
2022-10-03T02:27:45.857Z,13.38
2022-10-03T02:28:44.383Z,13.41
2022-10-03T02:29:46.548Z,13.52
2022-10-03T02:30:44.931Z,13.56
2022-10-03T02:31:45.291Z,13.49
2022-10-03T02:32:47.442Z,13.49
2022-10-03T02:33:47.651Z,13.50
2022-10-03T02:34:46.147Z,13.50
2022-10-03T02:35:46.488Z,13.46
2022-10-03T02:36:48.670Z,13.42
2022-10-03T02:37:49.805Z,13.44
2022-10-03T02:38:47.318Z,13.46
2022-10-03T02:39:48.659Z,13.42
2022-10-03T02:40:49.754Z,13.52
2022-10-03T02:41:48.965Z,13.46
2022-10-03T02:42:50.311Z,13.46
2022-10-03T02:43:49.540Z,13.47
2022-10-03T02:44:49.028Z,13.46
2022-10-03T02:45:49.385Z,13.46
2022-10-03T02:46:52.535Z,13.47
2022-10-03T02:47:49.922Z,13.49
2022-10-03T02:48:53.076Z,13.52
2022-10-03T02:49:50.475Z,13.50
2022-10-03T02:50:51.685Z,13.49
2022-10-03T02:51:51.844Z,13.49
2022-10-03T02:52:52.797Z,13.46
2022-10-03T02:53:53.519Z,13.46
2022-10-03T02:54:52.867Z,13.52
2022-10-03T02:55:53.205Z,13.47
2022-10-03T02:56:53.412Z,13.47
2022-10-03T02:57:53.829Z,13.44
2022-10-03T02:58:55.098Z,13.49
2022-10-03T02:59:54.415Z,13.47
2022-10-03T03:00:54.647Z,13.44
2022-10-03T03:01:55.123Z,13.47
2022-10-03T03:02:56.309Z,13.39
2022-10-03T03:03:56.485Z,13.31
2022-10-03T03:04:57.594Z,13.28
2022-10-03T03:05:55.241Z,13.35
2022-10-03T03:06:56.549Z,13.41
2022-10-03T03:07:57.713Z,13.42
2022-10-03T03:08:57.873Z,13.42
2022-10-03T03:09:58.052Z,13.41
2022-10-03T03:10:56.686Z,13.41
2022-10-03T03:11:56.984Z,13.42
2022-10-03T03:12:59.164Z,13.41
2022-10-03T03:13:57.562Z,13.46
2022-10-03T03:14:59.731Z,13.47
2022-10-03T03:15:59.935Z,13.47
2022-10-03T03:17:00.088Z,13.49
2022-10-03T03:18:00.245Z,13.56
2022-10-03T03:19:00.949Z,13.56
2022-10-03T03:20:01.104Z,13.54
2022-10-03T03:21:01.271Z,13.50
2022-10-03T03:22:01.443Z,13.53
2022-10-03T03:23:00.185Z,13.56
2022-10-03T03:24:02.358Z,13.54
2022-10-03T03:25:02.538Z,13.57
2022-10-03T03:26:02.761Z,13.52
2022-10-03T03:27:02.923Z,13.59
2022-10-03T03:28:03.161Z,13.53
2022-10-03T03:29:03.255Z,13.53
2022-10-03T03:30:03.982Z,13.52
2022-10-03T03:31:02.386Z,13.49
2022-10-03T03:32:05.588Z,13.44
2022-10-03T03:33:02.952Z,13.46
2022-10-03T03:34:05.107Z,13.47
2022-10-03T03:35:03.499Z,13.49
2022-10-03T03:36:05.668Z,13.47
2022-10-03T03:37:04.934Z,13.50
2022-10-03T03:38:04.312Z,13.44
2022-10-03T03:39:06.482Z,13.41
2022-10-03T03:40:04.866Z,13.53
2022-10-03T03:41:07.059Z,13.52
2022-10-03T03:42:07.822Z,13.52
2022-10-03T03:43:05.702Z,13.60
2022-10-03T03:44:06.031Z,13.53
2022-10-03T03:45:08.221Z,13.60
2022-10-03T03:46:08.429Z,13.63
2022-10-03T03:47:09.566Z,13.68
2022-10-03T03:48:07.199Z,13.71
2022-10-03T03:49:07.491Z,13.65
2022-10-03T03:50:07.803Z,13.67
2022-10-03T03:51:09.991Z,13.60
2022-10-03T03:52:10.237Z,13.57
2022-10-03T03:53:08.624Z,13.60
2022-10-03T03:54:08.929Z,13.60
2022-10-03T03:55:09.233Z,13.52
2022-10-03T03:56:09.501Z,13.56
2022-10-03T03:57:13.159Z,13.49
2022-10-03T03:58:10.058Z,13.54
2022-10-03T03:59:12.226Z,13.59
2022-10-03T04:00:10.599Z,13.56
2022-10-03T04:01:10.922Z,13.60
2022-10-03T04:02:13.617Z,13.62
2022-10-03T04:03:13.278Z,13.67
2022-10-03T04:04:13.556Z,13.74
2022-10-03T04:05:12.049Z,13.79
2022-10-03T04:06:14.241Z,13.81
2022-10-03T04:07:18.325Z,13.92
2022-10-03T04:08:13.826Z,14.05
2022-10-03T04:09:16.494Z,14.07
2022-10-03T04:10:13.373Z,14.10
2022-10-03T04:11:13.686Z,14.08
2022-10-03T04:12:15.864Z,14.08
2022-10-03T04:13:14.255Z,14.03
2022-10-03T04:14:17.390Z,14.03
2022-10-03T04:15:16.627Z,14.00
2022-10-03T04:16:15.179Z,14.00
2022-10-03T04:17:17.298Z,14.04
2022-10-03T04:18:15.789Z,14.08
2022-10-03T04:19:17.947Z,14.05
2022-10-03T04:20:16.366Z,14.10
2022-10-03T04:21:19.242Z,14.08
2022-10-03T04:22:16.989Z,14.15
2022-10-03T04:23:19.179Z,14.22
2022-10-03T04:24:17.579Z,14.26
2022-10-03T04:25:17.886Z,14.36
2022-10-03T04:26:18.175Z,14.37
2022-10-03T04:27:18.517Z,14.37
2022-10-03T04:28:20.738Z,14.40
2022-10-03T04:29:19.068Z,14.32
2022-10-03T04:30:19.361Z,14.32
2022-10-03T04:31:19.725Z,14.33
2022-10-03T04:32:22.820Z,14.32
2022-10-03T04:33:23.001Z,14.40
2022-10-03T04:34:23.234Z,14.41
2022-10-03T04:35:21.636Z,14.44
2022-10-03T04:36:21.798Z,14.54
2022-10-03T04:37:22.221Z,14.60
2022-10-03T04:38:23.463Z,14.65
2022-10-03T04:39:23.699Z,14.68
2022-10-03T04:40:22.067Z,14.78
2022-10-03T04:41:24.239Z,14.72
2022-10-03T04:42:22.608Z,14.72
2022-10-03T04:43:22.933Z,14.79
2022-10-03T04:44:25.123Z,14.63
2022-10-03T04:45:25.283Z,14.65
2022-10-03T04:46:23.767Z,14.65
2022-10-03T04:47:26.902Z,14.62
2022-10-03T04:48:24.309Z,14.66
2022-10-03T04:49:26.499Z,14.69
2022-10-03T04:50:25.831Z,14.81
2022-10-03T04:51:28.033Z,14.81
2022-10-03T04:52:26.385Z,14.66
2022-10-03T04:53:27.610Z,14.78
2022-10-03T04:54:28.039Z,14.70
2022-10-03T04:55:26.319Z,14.65
2022-10-03T04:56:26.610Z,14.66
2022-10-03T04:57:28.798Z,14.68
2022-10-03T04:58:28.972Z,14.59
2022-10-03T04:59:28.296Z,14.55
2022-10-03T05:00:27.770Z,14.63
2022-10-03T05:01:28.099Z,14.60
2022-10-03T05:02:28.413Z,14.58
2022-10-03T05:03:30.544Z,14.60
2022-10-03T05:04:30.726Z,14.59
2022-10-03T05:05:31.076Z,14.58
2022-10-03T05:06:29.465Z,14.54
2022-10-03T05:07:31.648Z,14.55
2022-10-03T05:08:31.835Z,14.58
2022-10-03T05:09:32.014Z,14.68
2022-10-03T05:10:31.593Z,14.66
2022-10-03T05:11:32.836Z,14.65
2022-10-03T05:12:33.026Z,14.72
2022-10-03T05:13:33.212Z,14.69
2022-10-03T05:14:33.412Z,14.66
2022-10-03T05:15:32.164Z,14.60
2022-10-03T05:16:34.376Z,14.58
2022-10-03T05:17:34.482Z,14.65
2022-10-03T05:18:33.018Z,14.66
2022-10-03T05:19:35.194Z,14.62
2022-10-03T05:20:35.397Z,14.72
2022-10-03T05:21:35.689Z,14.66
2022-10-03T05:22:34.203Z,14.66
2022-10-03T05:23:34.542Z,14.65
2022-10-03T05:24:34.877Z,14.58
2022-10-03T05:25:35.110Z,14.55
2022-10-03T05:26:51.437Z,14.59
2022-10-03T05:27:36.725Z,14.58
2022-10-03T05:28:35.985Z,14.48
2022-10-03T05:29:38.164Z,14.37
2022-10-03T05:30:36.605Z,14.41
2022-10-03T05:31:37.126Z,14.36
2022-10-03T05:32:39.007Z,14.33
2022-10-03T05:33:37.284Z,14.30
2022-10-03T05:34:39.491Z,14.33
2022-10-03T05:35:37.886Z,14.30
2022-10-03T05:36:38.211Z,14.30
2022-10-03T05:37:38.528Z,14.28
2022-10-03T05:38:40.715Z,14.26
2022-10-03T05:39:40.886Z,14.32
2022-10-03T05:40:39.421Z,14.35
2022-10-03T05:41:42.008Z,14.29
2022-10-03T05:42:39.916Z,14.29
2022-10-03T05:43:42.097Z,14.28
2022-10-03T05:44:42.285Z,14.26
2022-10-03T05:45:40.866Z,14.22
2022-10-03T05:46:41.169Z,14.20
2022-10-03T05:47:41.398Z,14.23
2022-10-03T05:48:43.588Z,14.28
2022-10-03T05:49:43.782Z,14.22
2022-10-03T05:50:43.969Z,14.22
2022-10-03T05:51:43.045Z,14.20
2022-10-03T05:52:44.919Z,14.23
2022-10-03T05:53:43.208Z,14.28
2022-10-03T05:54:43.560Z,14.28
2022-10-03T05:55:43.798Z,14.29
2022-10-03T05:56:44.029Z,14.29
2022-10-03T05:57:46.212Z,14.17
2022-10-03T05:58:45.414Z,14.17
2022-10-03T05:59:44.809Z,14.22
2022-10-03T06:00:45.146Z,14.18
2022-10-03T06:01:45.478Z,14.29
2022-10-03T06:02:47.763Z,14.36
2022-10-03T06:03:46.137Z,14.41
2022-10-03T06:04:46.481Z,14.37
2022-10-03T06:05:46.815Z,14.37
2022-10-03T06:06:47.048Z,14.40
2022-10-03T06:07:49.219Z,14.40
2022-10-03T06:08:47.660Z,14.33
2022-10-03T06:09:47.891Z,14.33
2022-10-03T06:10:48.107Z,14.37
2022-10-03T06:11:48.431Z,14.36
2022-10-03T06:12:50.614Z,14.41
2022-10-03T06:13:50.826Z,14.43
2022-10-03T06:14:49.355Z,14.45
2022-10-03T06:15:53.013Z,14.55
2022-10-03T06:16:49.930Z,14.60
2022-10-03T06:17:50.160Z,14.59
2022-10-03T06:18:52.342Z,14.68
2022-10-03T06:19:52.507Z,14.72
2022-10-03T06:20:50.904Z,14.70
2022-10-03T06:21:51.145Z,14.63
2022-10-03T06:22:51.383Z,14.62
2022-10-03T06:23:52.486Z,14.66
2022-10-03T06:24:53.832Z,14.62
2022-10-03T06:25:54.011Z,14.60
2022-10-03T06:26:52.556Z,14.60
2022-10-03T06:27:52.937Z,14.55
2022-10-03T06:28:54.078Z,14.55
2022-10-03T06:29:55.444Z,14.62
2022-10-03T06:30:53.779Z,14.59
2022-10-03T06:31:55.915Z,14.63
2022-10-03T06:32:54.198Z,14.65
2022-10-03T06:33:55.398Z,14.66
2022-10-03T06:34:56.634Z,14.69
2022-10-03T06:35:54.957Z,14.70
2022-10-03T06:36:55.170Z,14.88
2022-10-03T06:37:57.350Z,14.89
2022-10-03T06:38:55.711Z,14.91
2022-10-03T06:39:57.846Z,15.04
2022-10-03T06:40:56.257Z,15.06
2022-10-03T06:41:56.587Z,15.04
2022-10-03T06:42:57.840Z,15.09
2022-10-03T06:44:00.151Z,15.15
2022-10-03T06:44:59.380Z,15.21
2022-10-03T06:45:57.845Z,15.27
2022-10-03T06:46:59.979Z,15.28
2022-10-03T06:47:58.289Z,15.25
2022-10-03T06:49:01.159Z,15.28
2022-10-03T06:50:00.662Z,15.24
2022-10-03T06:50:59.195Z,15.31
2022-10-03T06:52:02.323Z,15.28
2022-10-03T06:53:00.711Z,15.21
2022-10-03T06:54:01.125Z,15.22
2022-10-03T06:55:01.287Z,15.35
2022-10-03T06:56:02.657Z,15.25
2022-10-03T06:57:01.863Z,15.36
2022-10-03T06:58:03.136Z,15.54
2022-10-03T06:59:03.412Z,15.67
2022-10-03T07:00:02.774Z,15.98
2022-10-03T07:01:02.072Z,16.17
2022-10-03T07:02:02.492Z,16.51
2022-10-03T07:03:04.472Z,16.64
2022-10-03T07:04:02.893Z,16.57
2022-10-03T07:05:03.109Z,16.68
2022-10-03T07:06:03.330Z,16.51
2022-10-03T07:07:04.528Z,16.72
2022-10-03T07:08:05.801Z,16.76
2022-10-03T07:09:06.589Z,16.68
2022-10-03T07:10:05.272Z,16.72
2022-10-03T07:11:06.465Z,16.78
2022-10-03T07:12:09.709Z,16.86
2022-10-03T07:13:07.924Z,17.02
2022-10-03T07:14:06.403Z,17.27
2022-10-03T07:15:05.808Z,17.22
2022-10-03T07:16:26.049Z,17.42
2022-10-03T07:17:07.499Z,17.46
2022-10-03T07:18:06.726Z,17.39
2022-10-03T07:19:08.903Z,17.60
2022-10-03T07:20:08.099Z,17.41
2022-10-03T07:21:07.486Z,17.29
2022-10-03T07:22:07.717Z,17.39
2022-10-03T07:23:09.913Z,17.56
2022-10-03T07:24:10.104Z,17.72
2022-10-03T07:25:10.289Z,17.92
2022-10-03T07:26:10.477Z,17.72
2022-10-03T07:27:11.164Z,17.59
2022-10-03T07:28:11.451Z,17.57
2022-10-03T07:29:10.826Z,17.48
2022-10-03T07:30:11.679Z,17.57
2022-10-03T07:31:12.431Z,17.68
2022-10-03T07:32:12.556Z,17.70
2022-10-03T07:33:12.745Z,17.72
2022-10-03T07:34:13.882Z,17.52
2022-10-03T07:35:11.670Z,17.52
2022-10-03T07:36:13.850Z,17.59
2022-10-03T07:37:14.034Z,17.65
2022-10-03T07:38:12.582Z,17.82
2022-10-03T07:39:13.704Z,17.68
2022-10-03T07:40:13.106Z,17.76
2022-10-03T07:41:13.451Z,17.82
2022-10-03T07:42:15.633Z,18.04
2022-10-03T07:43:14.067Z,17.97
2022-10-03T07:44:14.407Z,18.19
2022-10-03T07:45:14.634Z,18.19
2022-10-03T07:46:14.911Z,18.13
2022-10-03T07:47:17.052Z,17.98
2022-10-03T07:48:15.357Z,18.19
2022-10-03T07:49:18.668Z,18.19
2022-10-03T07:50:17.758Z,18.18
2022-10-03T07:51:16.202Z,18.20
2022-10-03T07:52:16.452Z,18.11
2022-10-03T07:53:16.792Z,18.15
2022-10-03T07:54:19.963Z,18.31
2022-10-03T07:55:19.210Z,18.11
2022-10-03T07:56:17.658Z,17.95
2022-10-03T07:57:17.945Z,17.98
2022-10-03T07:58:18.197Z,17.95
2022-10-03T07:59:19.471Z,18.18
2022-10-03T08:00:20.660Z,18.47
2022-10-03T08:01:20.833Z,18.56
2022-10-03T08:02:20.258Z,18.38
2022-10-03T08:03:21.557Z,18.81
2022-10-03T08:04:22.619Z,18.73
2022-10-03T08:05:21.879Z,18.55
2022-10-03T08:06:20.427Z,18.23
2022-10-03T08:07:20.785Z,18.37
2022-10-03T08:08:21.015Z,18.16
2022-10-03T08:09:22.086Z,18.37
2022-10-03T08:10:21.583Z,18.26
2022-10-03T08:11:23.712Z,18.31
2022-10-03T08:12:22.146Z,18.60
2022-10-03T08:13:24.326Z,18.22
2022-10-03T08:14:23.689Z,18.45
2022-10-03T08:15:24.827Z,18.44
2022-10-03T08:16:23.335Z,18.28
2022-10-03T08:17:23.545Z,18.11
2022-10-03T08:18:23.779Z,18.19
2022-10-03T08:19:26.025Z,18.43
2022-10-03T08:20:24.438Z,18.47
2022-10-03T08:21:26.629Z,18.59
2022-10-03T08:22:25.044Z,18.68
2022-10-03T08:23:27.200Z,18.70
2022-10-03T08:24:26.326Z,18.53
2022-10-03T08:25:29.312Z,18.74
2022-10-03T08:26:28.181Z,18.68
2022-10-03T08:27:28.238Z,18.92
2022-10-03T08:28:28.479Z,19.29
2022-10-03T08:29:29.110Z,19.36
2022-10-03T08:30:28.260Z,18.98
2022-10-03T08:31:30.612Z,18.89
2022-10-03T08:32:27.906Z,18.98
2022-10-03T08:33:28.136Z,19.09
2022-10-03T08:34:30.319Z,19.27
2022-10-03T08:35:28.758Z,19.26
2022-10-03T08:36:28.854Z,18.99
2022-10-03T08:37:29.091Z,19.18
2022-10-03T08:38:29.333Z,18.70
2022-10-03T08:39:31.512Z,18.84
2022-10-03T08:40:29.823Z,19.16
2022-10-03T08:41:30.141Z,19.24
2022-10-03T08:42:30.362Z,18.83
2022-10-03T08:43:30.714Z,18.73
2022-10-03T08:44:30.932Z,18.78
2022-10-03T08:45:34.076Z,19.08
2022-10-03T08:46:32.559Z,19.04
2022-10-03T08:47:31.833Z,18.98
2022-10-03T08:48:32.932Z,19.02
2022-10-03T08:49:33.348Z,19.31
2022-10-03T08:50:34.542Z,19.34
2022-10-03T08:51:34.728Z,19.16
2022-10-03T08:52:34.095Z,19.18
2022-10-03T08:53:35.502Z,19.39
2022-10-03T08:54:34.668Z,19.24
2022-10-03T08:55:36.012Z,19.22
2022-10-03T08:56:36.202Z,19.11
2022-10-03T08:57:35.666Z,18.80
2022-10-03T08:58:37.958Z,18.81
2022-10-03T08:59:35.453Z,18.80
2022-10-03T09:00:37.564Z,18.83
2022-10-03T09:01:38.154Z,18.98
2022-10-03T09:02:38.929Z,19.19
2022-10-03T09:03:42.791Z,18.95
2022-10-03T09:04:38.834Z,18.88
2022-10-03T09:05:39.003Z,18.73
2022-10-03T09:06:52.786Z,18.84
2022-10-03T09:07:39.751Z,19.18
2022-10-03T09:08:38.989Z,18.99
2022-10-03T09:09:40.228Z,18.73
2022-10-03T09:10:38.538Z,18.66
2022-10-03T09:11:38.788Z,18.86
2022-10-03T09:12:39.846Z,18.89
2022-10-03T09:13:41.230Z,19.00
2022-10-03T09:14:41.470Z,19.52
2022-10-03T09:15:39.788Z,19.59
2022-10-03T09:16:40.346Z,19.70
2022-10-03T09:17:41.158Z,19.81
2022-10-03T09:18:42.516Z,19.88
2022-10-03T09:19:42.692Z,19.47
2022-10-03T09:20:41.228Z,19.52
2022-10-03T09:21:41.478Z,19.64
2022-10-03T09:22:43.670Z,19.58
2022-10-03T09:23:44.627Z,19.56
2022-10-03T09:24:43.805Z,19.99
2022-10-03T09:25:44.494Z,20.43
2022-10-03T09:26:43.030Z,20.26
2022-10-03T09:27:45.946Z,20.03
2022-10-03T09:28:43.376Z,20.14
2022-10-03T09:29:45.555Z,19.71
2022-10-03T09:30:45.750Z,19.47
2022-10-03T09:31:45.975Z,19.51
2022-10-03T09:32:47.105Z,19.79
2022-10-03T09:33:45.788Z,19.73
2022-10-03T09:34:46.977Z,19.69
2022-10-03T09:35:47.152Z,19.86
2022-10-03T09:36:47.318Z,19.89
2022-10-03T09:37:48.526Z,19.85
2022-10-03T09:38:46.111Z,19.52
2022-10-03T09:39:48.281Z,19.54
2022-10-03T09:40:51.236Z,19.33
2022-10-03T09:41:49.758Z,19.12
2022-10-03T09:42:49.027Z,18.62
2022-10-03T09:43:49.160Z,18.59
2022-10-03T09:44:47.710Z,18.45
2022-10-03T09:45:48.896Z,18.29
2022-10-03T09:46:50.193Z,18.13
2022-10-03T09:47:51.779Z,18.18
2022-10-03T09:48:48.711Z,18.10
2022-10-03T09:49:50.900Z,18.04
2022-10-03T09:50:49.208Z,17.87
2022-10-03T09:51:49.441Z,17.82
2022-10-03T09:52:52.592Z,17.87
2022-10-03T09:53:49.910Z,17.85
2022-10-03T09:54:52.110Z,18.01
2022-10-03T09:55:52.291Z,18.00
2022-10-03T09:56:52.481Z,17.85
2022-10-03T09:57:51.866Z,18.73
2022-10-03T09:58:54.702Z,19.33
2022-10-03T09:59:51.523Z,19.49
2022-10-03T10:00:51.834Z,19.66
2022-10-03T10:01:53.950Z,19.54
2022-10-03T10:02:53.223Z,19.63
2022-10-03T10:03:54.623Z,19.79
2022-10-03T10:04:55.821Z,20.00
2022-10-03T10:05:53.146Z,19.76
2022-10-03T10:06:53.383Z,19.67
2022-10-03T10:07:57.072Z,19.58
2022-10-03T10:08:55.805Z,19.96
2022-10-03T10:09:54.125Z,19.94
2022-10-03T10:10:54.362Z,20.25
2022-10-03T10:11:54.587Z,20.65
2022-10-03T10:12:54.903Z,20.34
2022-10-03T10:14:10.248Z,20.26
2022-10-03T10:14:58.333Z,20.69
2022-10-03T10:15:55.833Z,21.09
2022-10-03T10:16:56.045Z,20.24
2022-10-03T10:17:59.228Z,20.06
2022-10-03T10:18:58.460Z,19.74
2022-10-03T10:19:56.878Z,19.47
2022-10-03T10:20:59.082Z,18.98
2022-10-03T10:21:59.259Z,18.62
2022-10-03T10:22:58.726Z,18.52
2022-10-03T10:23:59.886Z,18.25
2022-10-03T10:24:58.317Z,18.33
2022-10-03T10:25:58.668Z,18.11
2022-10-03T10:26:58.916Z,18.08
2022-10-03T10:28:02.620Z,18.20
2022-10-03T10:28:59.439Z,18.16
2022-10-03T10:30:01.617Z,18.05
2022-10-03T10:30:59.985Z,18.01
2022-10-03T10:32:00.202Z,17.94
2022-10-03T10:33:03.852Z,17.95
2022-10-03T10:34:00.792Z,18.05
2022-10-03T10:35:02.977Z,18.04
2022-10-03T10:36:01.283Z,18.18
2022-10-03T10:37:01.632Z,18.19
2022-10-03T10:38:04.824Z,18.08
2022-10-03T10:39:04.025Z,17.79
2022-10-03T10:40:04.203Z,17.78
2022-10-03T10:41:03.775Z,17.90
2022-10-03T10:42:02.989Z,18.10
2022-10-03T10:43:06.131Z,18.03
2022-10-03T10:44:03.456Z,17.82
2022-10-03T10:45:05.624Z,17.71
2022-10-03T10:46:03.910Z,17.63
2022-10-03T10:47:04.226Z,17.90
2022-10-03T10:48:05.287Z,18.16
2022-10-03T10:49:04.716Z,18.03
2022-10-03T10:50:06.884Z,18.08
2022-10-03T10:51:08.024Z,18.26
2022-10-03T10:52:07.256Z,18.33
2022-10-03T10:53:06.594Z,18.43
2022-10-03T10:54:06.027Z,18.26
2022-10-03T10:55:08.206Z,18.35
2022-10-03T10:56:06.498Z,18.35
2022-10-03T10:57:06.737Z,18.40
2022-10-03T10:58:07.907Z,19.02
2022-10-03T10:59:09.173Z,19.92
2022-10-03T11:00:07.472Z,19.99
2022-10-03T11:01:09.686Z,19.19
2022-10-03T11:02:07.957Z,18.75
2022-10-03T11:03:09.165Z,18.74
2022-10-03T11:04:08.464Z,18.75
2022-10-03T11:05:08.710Z,18.53
2022-10-03T11:06:11.841Z,18.22
2022-10-03T11:07:10.117Z,18.41
2022-10-03T11:08:11.559Z,18.55
2022-10-03T11:09:09.868Z,18.41
2022-10-03T11:10:10.221Z,18.16
2022-10-03T11:11:11.275Z,18.20
2022-10-03T11:12:12.644Z,18.41
2022-10-03T11:13:13.821Z,18.56
2022-10-03T11:14:11.385Z,18.29
2022-10-03T11:15:13.577Z,18.22
2022-10-03T11:16:13.926Z,18.63
2022-10-03T11:17:12.186Z,18.90
2022-10-03T11:18:13.414Z,18.65
2022-10-03T11:19:13.571Z,18.49
2022-10-03T11:20:14.061Z,18.38
2022-10-03T11:21:15.195Z,18.68
2022-10-03T11:22:14.565Z,19.29
2022-10-03T11:23:14.894Z,19.86
2022-10-03T11:24:15.137Z,20.19
2022-10-03T11:25:14.433Z,19.74
2022-10-03T11:26:16.627Z,19.29
2022-10-03T11:27:15.879Z,20.11
2022-10-03T11:28:19.281Z,19.96
2022-10-03T11:29:16.396Z,20.09
2022-10-03T11:30:17.615Z,20.09
2022-10-03T11:31:15.995Z,19.64
2022-10-03T11:32:18.107Z,19.64
2022-10-03T11:33:19.247Z,19.62
2022-10-03T11:34:18.453Z,19.64
2022-10-03T11:35:17.131Z,20.10
2022-10-03T11:36:18.313Z,20.36
2022-10-03T11:37:18.506Z,20.44
2022-10-03T11:38:20.662Z,20.78
2022-10-03T11:39:19.897Z,20.28
2022-10-03T11:40:20.053Z,20.51
2022-10-03T11:41:20.747Z,20.26
2022-10-03T11:42:20.946Z,19.69
2022-10-03T11:43:21.116Z,19.24
2022-10-03T11:44:21.430Z,18.98
2022-10-03T11:45:19.985Z,18.40
2022-10-03T11:46:22.181Z,18.11
2022-10-03T11:47:22.359Z,18.49
2022-10-03T11:48:20.897Z,18.50
2022-10-03T11:49:21.145Z,18.38
2022-10-03T11:50:21.388Z,18.07
2022-10-03T11:51:21.630Z,18.13
2022-10-03T11:52:23.844Z,18.16
2022-10-03T11:53:24.016Z,18.18
2022-10-03T11:54:32.594Z,18.22
2022-10-03T11:55:23.690Z,18.37
2022-10-03T11:56:22.988Z,18.78
2022-10-03T11:57:23.235Z,19.18
2022-10-03T11:58:25.424Z,18.95
2022-10-03T11:59:26.778Z,18.77
2022-10-03T12:00:24.018Z,18.33
2022-10-03T12:01:25.253Z,18.04
2022-10-03T12:02:26.449Z,17.78
2022-10-03T12:03:26.673Z,17.65
2022-10-03T12:04:26.776Z,17.63
2022-10-03T12:05:25.474Z,17.68
2022-10-03T12:06:27.658Z,17.68
2022-10-03T12:07:27.834Z,17.71
2022-10-03T12:08:28.018Z,17.78
2022-10-03T12:09:26.576Z,17.79
2022-10-03T12:10:28.757Z,17.63
2022-10-03T12:11:28.036Z,17.60
2022-10-03T12:12:27.336Z,17.60
2022-10-03T12:13:29.529Z,17.54
2022-10-03T12:14:27.825Z,17.52
2022-10-03T12:15:28.934Z,17.65
2022-10-03T12:16:29.408Z,17.80
2022-10-03T12:17:28.682Z,17.72
2022-10-03T12:18:28.916Z,17.90
2022-10-03T12:19:31.188Z,17.85
2022-10-03T12:20:29.511Z,17.98
2022-10-03T12:21:31.809Z,17.90
2022-10-03T12:22:30.824Z,17.94
2022-10-03T12:23:30.264Z,17.68
2022-10-03T12:24:32.428Z,17.80
2022-10-03T12:25:30.760Z,17.97
2022-10-03T12:26:31.010Z,17.98
2022-10-03T12:27:31.250Z,17.95
2022-10-03T12:28:31.587Z,17.90
2022-10-03T12:29:33.682Z,18.13
2022-10-03T12:30:32.104Z,18.25
2022-10-03T12:31:32.487Z,18.10
2022-10-03T12:32:32.662Z,18.19
2022-10-03T12:33:33.873Z,18.00
2022-10-03T12:34:35.199Z,18.10
2022-10-03T12:35:36.239Z,17.95
2022-10-03T12:36:35.651Z,17.82
2022-10-03T12:37:35.703Z,17.67
2022-10-03T12:38:34.449Z,17.59
2022-10-03T12:39:36.572Z,17.44
2022-10-03T12:40:36.722Z,17.15
2022-10-03T12:41:35.276Z,16.83
2022-10-03T12:42:35.514Z,16.64
2022-10-03T12:43:37.742Z,16.46
2022-10-03T12:44:36.049Z,16.46
2022-10-03T12:45:38.256Z,16.47
2022-10-03T12:46:39.878Z,16.43
2022-10-03T12:47:54.769Z,16.53
2022-10-03T12:48:40.008Z,16.61
2022-10-03T12:49:39.183Z,16.60
2022-10-03T12:50:37.614Z,16.60
2022-10-03T12:51:40.121Z,16.72
2022-10-03T12:52:38.197Z,16.87
2022-10-03T12:53:38.448Z,16.84
2022-10-03T12:54:40.622Z,16.89
2022-10-03T12:55:38.937Z,16.99
2022-10-03T12:56:40.223Z,17.04
2022-10-03T12:57:39.417Z,17.19